Time;durP1;ratioP1;P1;durP2;ratioP2;P2;SDS_P1;SDS_P2;PMS_P1;PMS_P2;Temp;Humidity;BMP_temperature;BMP_pressure;BME280_temperature;BME280_humidity;BME280_pressure;Samples;Min_cycle;Max_cycle;Signal;HPM_P1;HPM_P2
2021/06/29 00:01:18;;;;;;;10.73;7.30;;;18.30;99.90;;;;;;4988433;28;20664;-72
2021/06/29 00:03:45;;;;;;;11.27;6.70;;;18.30;99.90;;;;;;4985211;28;20229;-73
2021/06/29 00:06:12;;;;;;;8.27;6.37;;;18.40;99.90;;;;;;4986870;28;20228;-73
2021/06/29 00:08:39;;;;;;;8.37;6.63;;;18.30;99.90;;;;;;4984037;28;20695;-72
2021/06/29 00:11:07;;;;;;;12.30;7.07;;;18.20;99.90;;;;;;4983585;28;21198;-73
2021/06/29 00:13:34;;;;;;;9.97;6.93;;;18.30;99.90;;;;;;4983197;28;20192;-73
2021/06/29 00:16:00;;;;;;;12.07;7.33;;;18.30;99.90;;;;;;4984118;28;20216;-73
2021/06/29 00:18:27;;;;;;;11.30;7.87;;;18.30;99.90;;;;;;4984747;28;20212;-73
2021/06/29 00:20:54;;;;;;;11.60;7.23;;;18.20;99.90;;;;;;4983890;28;20322;-73
2021/06/29 00:23:21;;;;;;;9.03;7.03;;;18.20;99.90;;;;;;4988019;28;20221;-73
2021/06/29 00:25:48;;;;;;;12.87;7.63;;;18.10;99.90;;;;;;4991523;28;20260;-73
2021/06/29 00:28:16;;;;;;;8.80;6.80;;;18.00;99.90;;;;;;4989830;28;20205;-73
2021/06/29 00:30:42;;;;;;;15.00;7.53;;;18.00;99.90;;;;;;4987119;28;20671;-73
2021/06/29 00:33:09;;;;;;;10.03;7.50;;;18.00;99.90;;;;;;4985868;28;20201;-71
2021/06/29 00:35:36;;;;;;;10.37;7.60;;;18.00;99.90;;;;;;4987986;28;20259;-73
2021/06/29 00:38:04;;;;;;;10.63;7.40;;;18.00;99.90;;;;;;4985539;28;20204;-73
2021/06/29 00:40:31;;;;;;;9.10;7.33;;;18.00;99.90;;;;;;4986108;28;20295;-73
2021/06/29 00:42:58;;;;;;;8.90;6.80;;;18.00;99.90;;;;;;4984617;28;20232;-73
2021/06/29 00:45:26;;;;;;;9.27;6.70;;;18.00;99.90;;;;;;4982249;28;20579;-72
2021/06/29 00:47:53;;;;;;;10.50;7.03;;;18.00;99.90;;;;;;4983029;28;20219;-73
2021/06/29 00:50:20;;;;;;;14.83;7.43;;;18.00;99.90;;;;;;4980575;28;20685;-73
2021/06/29 00:52:47;;;;;;;9.50;6.87;;;18.00;99.90;;;;;;4981680;28;20296;-71
2021/06/29 00:55:14;;;;;;;12.20;6.80;;;18.10;99.90;;;;;;4986182;28;20225;-72
2021/06/29 00:57:43;;;;;;;8.27;6.67;;;18.00;99.90;;;;;;4992824;28;20212;-73
2021/06/29 01:00:12;;;;;;;12.70;6.80;;;18.00;99.90;;;;;;4993790;28;20201;-72
2021/06/29 01:02:40;;;;;;;10.70;7.00;;;17.90;99.90;;;;;;4984760;28;20224;-73
2021/06/29 01:05:09;;;;;;;10.87;6.83;;;18.00;99.90;;;;;;4984694;28;20232;-73
2021/06/29 01:07:36;;;;;;;11.43;7.50;;;18.10;99.90;;;;;;4985505;28;20551;-73
2021/06/29 01:10:06;;;;;;;14.77;8.03;;;18.20;99.90;;;;;;4981206;28;20214;-73
2021/06/29 01:12:33;;;;;;;11.00;7.27;;;18.10;99.90;;;;;;4983001;28;20247;-74
2021/06/29 01:15:00;;;;;;;10.70;7.33;;;18.10;99.90;;;;;;4984268;28;20394;-74
2021/06/29 01:17:28;;;;;;;8.47;7.47;;;18.10;99.90;;;;;;4985293;28;20219;-73
2021/06/29 01:19:56;;;;;;;9.23;7.83;;;18.20;99.90;;;;;;4986735;28;20209;-74
2021/06/29 01:22:26;;;;;;;13.67;7.63;;;18.20;99.90;;;;;;4984003;28;20213;-74
2021/06/29 01:24:56;;;;;;;12.67;7.83;;;18.20;99.90;;;;;;4983197;28;20726;-73
2021/06/29 01:27:34;;;;;;;11.37;7.93;;;18.20;99.90;;;;;;4992068;28;20264;-74
2021/06/29 01:32:48;;;;;;;13.40;8.40;;;18.10;99.90;;;;;;4983557;28;20220;-73
2021/06/29 01:35:15;;;;;;;12.93;8.67;;;18.10;99.90;;;;;;4986329;28;20238;-74
2021/06/29 01:37:44;;;;;;;16.57;8.43;;;18.10;99.90;;;;;;4987371;28;20207;-73
2021/06/29 01:40:15;;;;;;;10.83;8.47;;;18.10;99.90;;;;;;4985313;28;20308;-73
2021/06/29 01:42:42;;;;;;;18.10;8.37;;;18.10;99.90;;;;;;4987037;28;20220;-73
2021/06/29 01:45:10;;;;;;;18.20;9.10;;;18.00;99.90;;;;;;4982176;28;20347;-73
2021/06/29 01:47:51;;;;;;;15.87;8.60;;;18.00;99.90;;;;;;4982527;28;20201;-73
2021/06/29 01:50:18;;;;;;;14.17;8.47;;;17.90;99.90;;;;;;4984391;28;20221;-72
2021/06/29 01:52:47;;;;;;;15.80;8.97;;;17.90;99.90;;;;;;4986293;28;20221;-74
2021/06/29 01:55:15;;;;;;;16.97;8.93;;;17.90;99.90;;;;;;4984616;28;20221;-74
2021/06/29 01:57:46;;;;;;;18.60;9.33;;;17.90;99.90;;;;;;4992873;28;20205;-73
2021/06/29 02:00:14;;;;;;;16.47;9.23;;;17.90;99.90;;;;;;4997263;28;20205;-74
2021/06/29 02:02:41;;;;;;;11.60;8.27;;;17.90;99.90;;;;;;4982806;28;20228;-74
2021/06/29 02:05:08;;;;;;;14.97;8.87;;;17.90;99.90;;;;;;4982045;28;20230;-74
2021/06/29 02:07:35;;;;;;;14.17;8.97;;;17.80;99.90;;;;;;4980039;28;20207;-73
2021/06/29 02:10:05;;;;;;;19.90;9.40;;;17.80;99.90;;;;;;4979754;28;20551;-73
2021/06/29 02:12:31;;;;;;;13.23;8.50;;;17.70;99.90;;;;;;4982018;28;20208;-72
2021/06/29 02:14:58;;;;;;;12.93;7.90;;;17.70;99.90;;;;;;4981011;28;20232;-74
2021/06/29 02:17:25;;;;;;;10.53;8.07;;;17.60;99.90;;;;;;4979096;28;20291;-74
2021/06/29 02:19:52;;;;;;;11.17;9.13;;;17.60;99.90;;;;;;4982414;28;21772;-74
2021/06/29 02:22:19;;;;;;;15.67;9.20;;;17.50;99.90;;;;;;4983290;28;20200;-73
2021/06/29 02:24:45;;;;;;;14.80;8.37;;;17.50;99.90;;;;;;4980322;28;20705;-74
2021/06/29 02:27:14;;;;;;;10.90;9.00;;;17.50;99.90;;;;;;4991251;28;20216;-74
2021/06/29 02:29:41;;;;;;;13.13;9.33;;;17.40;99.90;;;;;;4998241;28;20215;-74
2021/06/29 02:32:08;;;;;;;10.63;8.10;;;17.40;99.90;;;;;;4986102;28;20209;-73
2021/06/29 02:34:35;;;;;;;12.00;8.13;;;17.40;99.90;;;;;;4983364;28;20221;-72
2021/06/29 02:37:02;;;;;;;10.87;8.30;;;17.30;99.90;;;;;;4981578;28;20223;-73
2021/06/29 02:39:29;;;;;;;14.60;9.43;;;17.20;99.90;;;;;;4980141;28;20558;-73
2021/06/29 02:41:56;;;;;;;14.83;10.57;;;17.30;99.90;;;;;;4982382;28;20308;-72
2021/06/29 02:44:24;;;;;;;14.13;9.67;;;17.30;99.90;;;;;;4978848;28;20839;-73
2021/06/29 02:46:51;;;;;;;15.50;10.57;;;17.30;99.90;;;;;;4981093;28;20741;-73
2021/06/29 02:49:18;;;;;;;17.07;10.93;;;17.20;99.90;;;;;;4983315;28;20209;-73
2021/06/29 02:51:45;;;;;;;14.93;11.40;;;17.30;99.90;;;;;;4987057;28;20207;-72
2021/06/29 02:54:12;;;;;;;16.10;11.60;;;17.30;99.90;;;;;;4987047;28;20235;-73
2021/06/29 02:56:39;;;;;;;15.80;11.33;;;17.30;99.90;;;;;;4982631;28;20213;-73
2021/06/29 02:59:07;;;;;;;19.43;12.10;;;17.20;99.90;;;;;;4989311;28;20200;-72
2021/06/29 03:01:35;;;;;;;20.03;11.90;;;17.30;99.90;;;;;;4989533;28;20208;-73
2021/06/29 03:04:02;;;;;;;19.23;12.40;;;17.30;99.90;;;;;;4986355;28;21419;-73
2021/06/29 03:06:29;;;;;;;18.23;11.70;;;17.40;99.90;;;;;;4984160;28;20303;-73
2021/06/29 03:08:56;;;;;;;17.93;12.43;;;17.40;99.90;;;;;;4986260;28;20209;-73
2021/06/29 03:11:23;;;;;;;16.93;11.77;;;17.40;99.90;;;;;;4982943;28;20270;-74
2021/06/29 03:13:50;;;;;;;19.87;13.23;;;17.40;99.90;;;;;;4986067;28;20208;-73
2021/06/29 03:16:17;;;;;;;21.37;13.97;;;17.40;99.90;;;;;;4980537;28;20204;-73
2021/06/29 03:18:45;;;;;;;20.23;14.40;;;17.50;99.90;;;;;;4987132;28;20197;-74
2021/06/29 03:21:12;;;;;;;25.17;13.53;;;17.50;99.90;;;;;;4985539;28;20210;-73
2021/06/29 03:23:40;;;;;;;23.47;15.30;;;17.50;99.90;;;;;;4988344;28;20235;-74
2021/06/29 03:26:07;;;;;;;24.93;17.03;;;17.50;99.90;;;;;;4991823;28;20393;-75
2021/06/29 03:28:34;;;;;;;19.83;14.43;;;17.50;99.90;;;;;;4986973;28;20550;-75
2021/06/29 03:31:02;;;;;;;22.00;15.50;;;17.60;99.90;;;;;;4987563;28;20242;-73
2021/06/29 03:33:29;;;;;;;22.77;15.27;;;17.40;99.90;;;;;;4986722;28;20205;-75
2021/06/29 03:35:57;;;;;;;24.23;15.40;;;17.50;99.90;;;;;;4988321;28;20219;-73
2021/06/29 03:38:24;;;;;;;19.67;14.87;;;17.70;99.90;;;;;;4986748;28;20757;-74
2021/06/29 03:40:51;;;;;;;25.10;15.20;;;17.70;99.90;;;;;;4988442;28;20217;-74
2021/06/29 03:43:18;;;;;;;25.70;16.33;;;17.70;99.90;;;;;;4988116;28;20224;-74
2021/06/29 03:45:45;;;;;;;25.20;16.10;;;17.80;99.90;;;;;;4989385;28;20224;-74
2021/06/29 03:48:12;;;;;;;28.17;17.07;;;17.80;99.90;;;;;;4987640;28;20745;-74
2021/06/29 03:50:39;;;;;;;20.27;13.53;;;17.80;99.90;;;;;;4985294;28;20208;-74
2021/06/29 03:53:07;;;;;;;26.10;16.17;;;17.80;99.90;;;;;;4990091;28;20825;-74
2021/06/29 03:55:35;;;;;;;22.00;15.50;;;17.90;99.90;;;;;;4987892;28;20605;-73
2021/06/29 03:58:02;;;;;;;18.20;12.33;;;17.80;99.90;;;;;;4986531;28;20201;-74
2021/06/29 04:00:29;;;;;;;19.07;12.37;;;17.90;99.90;;;;;;4988644;28;20291;-73
2021/06/29 04:02:56;;;;;;;24.63;16.70;;;18.00;99.90;;;;;;4986185;28;20209;-73
2021/06/29 04:05:23;;;;;;;24.27;17.00;;;18.10;99.90;;;;;;4988109;28;20240;-73
2021/06/29 04:07:50;;;;;;;21.43;15.40;;;18.30;99.90;;;;;;4985907;28;20205;-74
2021/06/29 04:10:18;;;;;;;22.20;14.37;;;18.30;99.90;;;;;;4988241;28;20224;-73
2021/06/29 04:12:45;;;;;;;22.90;14.30;;;18.30;99.90;;;;;;4986368;28;20213;-72
2021/06/29 04:15:14;;;;;;;23.83;15.33;;;18.40;99.90;;;;;;4988578;28;20225;-73
2021/06/29 04:17:41;;;;;;;20.57;13.17;;;18.50;99.90;;;;;;4989934;28;20207;-74
2021/06/29 04:20:10;;;;;;;19.00;13.53;;;18.50;99.90;;;;;;4989325;28;20219;-73
2021/06/29 04:22:40;;;;;;;19.13;11.23;;;18.60;99.90;;;;;;4990476;28;20222;-73
2021/06/29 04:25:09;;;;;;;15.17;11.33;;;18.70;99.90;;;;;;4990812;28;20231;-73
2021/06/29 04:27:37;;;;;;;12.97;10.60;;;18.90;99.90;;;;;;4987788;28;20210;-73
2021/06/29 04:30:06;;;;;;;13.40;9.83;;;19.10;99.90;;;;;;4986523;28;20224;-73
2021/06/29 04:32:33;;;;;;;13.37;10.90;;;19.30;99.90;;;;;;4994538;28;20204;-73
2021/06/29 04:37:38;;;;;;;18.07;10.77;;;19.30;99.90;;;;;;5018328;28;20218;-74
2021/06/29 04:40:06;;;;;;;12.20;9.67;;;19.40;99.90;;;;;;5012713;28;20204;-74
2021/06/29 04:42:33;;;;;;;18.40;10.00;;;19.30;99.90;;;;;;5017795;28;20243;-76
2021/06/29 04:45:04;;;;;;;11.83;9.23;;;19.50;99.90;;;;;;5003143;28;20231;-74
2021/06/29 04:47:36;;;;;;;10.97;8.23;;;19.60;99.90;;;;;;4993937;28;20209;-74
2021/06/29 04:50:05;;;;;;;11.77;9.00;;;19.70;99.90;;;;;;4993297;28;20217;-74
2021/06/29 04:52:32;;;;;;;10.83;7.07;;;19.90;99.90;;;;;;4997355;28;20205;-76
2021/06/29 04:55:02;;;;;;;9.50;8.10;;;20.10;99.90;;;;;;4998305;28;20697;-77
2021/06/29 04:57:29;;;;;;;9.50;7.73;;;20.30;99.90;;;;;;4995086;28;20657;-76
2021/06/29 04:59:55;;;;;;;9.83;7.90;;;20.50;99.90;;;;;;4995828;28;20704;-76
2021/06/29 05:02:25;;;;;;;12.33;7.73;;;20.80;99.90;;;;;;4998383;28;20673;-74
2021/06/29 05:04:51;;;;;;;13.57;8.63;;;20.70;99.90;;;;;;4993170;28;20251;-77
2021/06/29 05:07:18;;;;;;;10.83;8.47;;;20.70;99.90;;;;;;4998316;28;20295;-76
2021/06/29 05:09:45;;;;;;;11.57;8.10;;;20.40;99.90;;;;;;4996599;28;20305;-77
2021/06/29 05:12:13;;;;;;;11.93;9.20;;;20.20;99.90;;;;;;4991684;28;20348;-75
2021/06/29 05:14:40;;;;;;;11.43;8.37;;;20.00;99.90;;;;;;4988894;28;20221;-75
2021/06/29 05:17:07;;;;;;;11.50;9.47;;;19.90;99.90;;;;;;4993866;28;20216;-76
2021/06/29 05:19:35;;;;;;;13.47;8.63;;;19.80;99.90;;;;;;4992683;28;20217;-76
2021/06/29 05:22:02;;;;;;;12.13;9.00;;;19.60;99.90;;;;;;4994599;28;20209;-76
2021/06/29 05:24:29;;;;;;;14.00;9.57;;;19.60;99.90;;;;;;4994332;28;20315;-76
2021/06/29 05:26:56;;;;;;;12.20;9.77;;;19.50;99.90;;;;;;4999436;28;20287;-76
2021/06/29 05:29:23;;;;;;;15.70;10.37;;;19.50;99.90;;;;;;4995797;28;20201;-76
2021/06/29 05:31:55;;;;;;;13.50;9.33;;;19.50;99.90;;;;;;4995178;28;20225;-76
2021/06/29 05:34:22;;;;;;;17.03;10.20;;;19.50;99.90;;;;;;5002987;28;20275;-76
2021/06/29 05:36:50;;;;;;;12.37;9.97;;;19.40;99.90;;;;;;4996896;28;20295;-76
2021/06/29 05:39:17;;;;;;;15.17;9.93;;;19.50;99.90;;;;;;4998790;28;20619;-76
2021/06/29 05:41:44;;;;;;;17.17;9.30;;;19.50;99.90;;;;;;4997600;28;20236;-76
2021/06/29 05:44:12;;;;;;;12.93;8.57;;;19.70;99.90;;;;;;4997709;28;20664;-76
2021/06/29 05:46:40;;;;;;;12.40;7.20;;;19.90;99.90;;;;;;4994770;28;20288;-75
2021/06/29 05:49:10;;;;;;;8.80;5.73;;;20.00;99.90;;;;;;5002281;28;20251;-76
2021/06/29 05:51:37;;;;;;;10.13;7.20;;;20.10;99.90;;;;;;4996081;28;20288;-77
2021/06/29 05:54:06;;;;;;;8.47;6.27;;;20.30;99.90;;;;;;4998260;28;20207;-76
2021/06/29 05:56:33;;;;;;;6.90;5.30;;;20.40;99.90;;;;;;5001312;28;20292;-76
2021/06/29 05:59:00;;;;;;;8.03;6.40;;;20.60;99.90;;;;;;4996666;28;20254;-76
2021/06/29 06:01:27;;;;;;;9.70;6.70;;;20.50;99.90;;;;;;4998828;28;20212;-75
2021/06/29 06:03:53;;;;;;;12.50;8.00;;;20.70;99.90;;;;;;4995154;28;20212;-75
2021/06/29 06:06:20;;;;;;;8.30;6.97;;;20.50;99.90;;;;;;4992338;28;20251;-74
2021/06/29 06:08:47;;;;;;;9.17;7.40;;;20.30;99.90;;;;;;4996374;28;20197;-75
2021/06/29 06:11:15;;;;;;;10.40;7.40;;;20.10;99.90;;;;;;5002820;28;20209;-75
2021/06/29 06:13:42;;;;;;;12.07;6.83;;;20.00;99.90;;;;;;4992170;28;20236;-75
2021/06/29 06:16:09;;;;;;;10.37;7.30;;;20.10;99.90;;;;;;5002583;28;20229;-74
2021/06/29 06:18:38;;;;;;;9.70;7.30;;;20.20;99.90;;;;;;4991453;28;20197;-75
2021/06/29 06:21:05;;;;;;;11.47;6.90;;;20.20;99.90;;;;;;4997629;28;20212;-75
2021/06/29 06:23:32;;;;;;;10.77;7.23;;;20.10;99.90;;;;;;4994955;28;20323;-75
2021/06/29 06:25:59;;;;;;;10.80;7.17;;;20.20;99.90;;;;;;5001414;28;20630;-75
2021/06/29 06:28:27;;;;;;;13.83;7.33;;;20.40;99.90;;;;;;4994603;28;20306;-75
2021/06/29 06:30:54;;;;;;;9.73;7.20;;;20.50;99.90;;;;;;4996325;28;20220;-75
2021/06/29 06:33:21;;;;;;;12.40;7.17;;;20.40;99.90;;;;;;4998516;28;20208;-75
2021/06/29 06:35:49;;;;;;;12.70;5.80;;;20.60;99.90;;;;;;4996415;28;20239;-75
2021/06/29 06:38:16;;;;;;;11.13;6.63;;;20.70;99.90;;;;;;4998354;28;20299;-75
2021/06/29 06:40:43;;;;;;;9.23;6.20;;;20.80;99.90;;;;;;4994415;28;20671;-75
2021/06/29 06:43:10;;;;;;;11.30;5.60;;;20.90;99.90;;;;;;4993293;28;20233;-75
2021/06/29 06:45:38;;;;;;;7.50;5.77;;;20.90;99.90;;;;;;4991568;28;20711;-77
2021/06/29 06:48:06;;;;;;;9.47;6.27;;;20.90;99.90;;;;;;4999181;28;20323;-75
2021/06/29 06:50:33;;;;;;;8.23;5.97;;;20.80;99.90;;;;;;4991894;28;20633;-76
2021/06/29 06:52:59;;;;;;;13.23;5.90;;;20.70;99.90;;;;;;4998757;28;20302;-76
2021/06/29 06:55:26;;;;;;;10.73;5.90;;;20.60;99.90;;;;;;4992483;28;20323;-76
2021/06/29 06:57:54;;;;;;;8.80;5.77;;;20.50;99.90;;;;;;4992311;28;20319;-76
2021/06/29 07:00:22;;;;;;;12.40;5.83;;;20.50;99.90;;;;;;4992127;28;20212;-76
2021/06/29 07:02:50;;;;;;;8.00;5.37;;;20.50;99.90;;;;;;4997246;28;20299;-76
2021/06/29 07:05:17;;;;;;;8.93;5.60;;;20.60;99.90;;;;;;5001669;28;20238;-76
2021/06/29 07:07:44;;;;;;;7.80;6.00;;;20.70;99.90;;;;;;4993581;28;20209;-75
2021/06/29 07:10:12;;;;;;;8.73;6.00;;;20.80;99.90;;;;;;4995285;28;20751;-75
2021/06/29 07:12:39;;;;;;;7.97;5.50;;;20.90;99.90;;;;;;4991461;28;20208;-75
2021/06/29 07:15:07;;;;;;;10.37;5.30;;;21.20;99.90;;;;;;4992195;28;20235;-75
2021/06/29 07:17:35;;;;;;;10.63;5.10;;;21.30;99.90;;;;;;4991696;28;20209;-75
2021/06/29 07:20:05;;;;;;;7.37;5.10;;;21.60;99.90;;;;;;4997270;28;20214;-75
2021/06/29 07:22:32;;;;;;;8.27;4.90;;;21.90;99.90;;;;;;5001592;28;20214;-76
2021/06/29 07:24:58;;;;;;;7.40;4.27;;;22.00;99.90;;;;;;4993287;28;20238;-75
2021/06/29 07:27:25;;;;;;;7.80;4.50;;;22.20;99.90;;;;;;4993265;28;20204;-75
2021/06/29 07:29:52;;;;;;;8.77;4.27;;;22.30;99.90;;;;;;4993609;28;20275;-76
2021/06/29 07:32:19;;;;;;;8.33;4.30;;;22.50;99.90;;;;;;4991510;28;20296;-76
2021/06/29 07:34:46;;;;;;;7.30;4.20;;;22.60;99.90;;;;;;4994651;28;20213;-75
2021/06/29 07:37:14;;;;;;;5.90;3.70;;;22.40;99.90;;;;;;4993152;28;20244;-76
2021/06/29 07:39:41;;;;;;;5.03;4.33;;;22.10;99.90;;;;;;4999137;28;20621;-74
2021/06/29 07:42:08;;;;;;;6.63;3.73;;;21.70;99.90;;;;;;4992177;28;20213;-75
2021/06/29 07:44:35;;;;;;;4.97;4.10;;;21.60;99.90;;;;;;4997108;28;20563;-75
2021/06/29 07:47:02;;;;;;;8.23;4.20;;;21.60;99.90;;;;;;4996357;28;20205;-75
2021/06/29 07:49:29;;;;;;;5.40;4.07;;;21.60;99.90;;;;;;5000361;28;20208;-74
2021/06/29 07:51:56;;;;;;;7.00;3.60;;;21.60;99.90;;;;;;4995491;28;20252;-75
2021/06/29 07:54:24;;;;;;;6.93;3.80;;;21.60;99.90;;;;;;4998259;28;20234;-75
2021/06/29 07:56:54;;;;;;;5.70;3.93;;;21.60;99.90;;;;;;4993314;28;20213;-76
2021/06/29 07:59:21;;;;;;;6.93;3.80;;;21.60;99.90;;;;;;4999428;28;20675;-76
2021/06/29 08:01:47;;;;;;;5.63;3.87;;;21.70;99.90;;;;;;4995207;28;20300;-75
2021/06/29 08:04:15;;;;;;;6.87;4.40;;;21.60;99.90;;;;;;4997532;28;20224;-76
2021/06/29 08:06:42;;;;;;;6.13;3.60;;;21.70;99.90;;;;;;4994340;28;20746;-75
2021/06/29 08:09:08;;;;;;;5.53;3.97;;;21.70;99.90;;;;;;4997677;28;20231;-75
2021/06/29 08:11:37;;;;;;;5.60;4.07;;;21.70;99.90;;;;;;4997853;28;20208;-76
2021/06/29 08:14:04;;;;;;;5.90;3.70;;;21.80;99.90;;;;;;5001608;28;20208;-75
2021/06/29 08:16:31;;;;;;;5.70;3.50;;;21.90;99.90;;;;;;4997956;28;20311;-76
2021/06/29 08:18:58;;;;;;;4.87;3.80;;;21.80;99.90;;;;;;4997864;28;20664;-75
2021/06/29 08:21:24;;;;;;;3.80;3.03;;;21.70;99.90;;;;;;4995153;28;20244;-76
2021/06/29 08:23:51;;;;;;;3.53;2.63;;;22.20;99.90;;;;;;5000905;28;20244;-76
2021/06/29 08:26:18;;;;;;;5.33;3.07;;;23.00;99.90;;;;;;4996660;28;20319;-76
2021/06/29 08:28:46;;;;;;;11.17;3.60;;;23.50;99.90;;;;;;4999363;28;20213;-76
2021/06/29 08:31:14;;;;;;;7.73;3.27;;;23.60;99.90;;;;;;4997983;28;20282;-76
2021/06/29 08:33:40;;;;;;;3.37;3.07;;;23.60;99.90;;;;;;4998776;28;20212;-76
2021/06/29 08:36:08;;;;;;;4.03;2.73;;;23.50;99.90;;;;;;4999724;28;20328;-76
2021/06/29 08:38:35;;;;;;;4.43;3.57;;;23.60;99.90;;;;;;4996574;28;20343;-76
2021/06/29 08:41:04;;;;;;;5.87;3.50;;;23.60;99.90;;;;;;4998705;28;20286;-76
2021/06/29 08:43:31;;;;;;;6.57;3.03;;;23.70;99.90;;;;;;5001465;28;20210;-76
2021/06/29 08:46:01;;;;;;;6.13;3.40;;;24.20;99.90;;;;;;4995719;28;20228;-75
2021/06/29 08:48:28;;;;;;;3.20;2.87;;;24.50;99.90;;;;;;4994194;28;20205;-75
2021/06/29 08:50:55;;;;;;;8.70;3.00;;;25.50;99.90;;;;;;4993703;28;20204;-75
2021/06/29 08:53:22;;;;;;;5.90;2.60;;;;;;;;;;4998218;28;20211;-76
2021/06/29 08:55:51;;;;;;;3.70;2.60;;;27.00;99.90;;;;;;4996671;28;20261;-76
2021/06/29 08:58:19;;;;;;;4.53;2.43;;;28.60;99.90;;;;;;4997853;28;20203;-76
2021/06/29 09:00:47;;;;;;;4.77;2.67;;;28.20;99.90;;;;;;4997984;28;20242;-76
2021/06/29 09:03:15;;;;;;;4.07;2.50;;;27.50;99.90;;;;;;4997756;28;20209;-76
2021/06/29 09:05:45;;;;;;;3.87;2.70;;;26.60;99.90;;;;;;4999204;28;20658;-76
2021/06/29 09:08:13;;;;;;;4.03;2.60;;;26.10;99.90;;;;;;4994982;28;20209;-76
2021/06/29 09:10:42;;;;;;;2.83;2.53;;;25.90;99.90;;;;;;4995795;28;20295;-76
2021/06/29 09:13:11;;;;;;;5.60;2.70;;;25.60;99.90;;;;;;4995013;28;20295;-76
2021/06/29 09:15:40;;;;;;;3.10;2.50;;;26.00;99.90;;;;;;4994653;28;20319;-76
2021/06/29 09:18:21;;;;;;;3.63;2.60;;;26.20;99.90;;;;;;4997354;28;20295;-76
2021/06/29 09:20:57;;;;;;;5.00;2.60;;;26.60;99.90;;;;;;4997828;28;20287;-76
2021/06/29 09:23:27;;;;;;;3.30;2.53;;;26.70;99.90;;;;;;4996619;28;20209;-76
2021/06/29 09:25:57;;;;;;;3.00;2.40;;;26.70;99.90;;;;;;4995470;28;20236;-76
2021/06/29 09:28:26;;;;;;;3.77;2.50;;;26.70;99.90;;;;;;4995505;28;20242;-76
2021/06/29 09:30:55;;;;;;;8.63;2.60;;;26.50;99.90;;;;;;4998268;28;20216;-76
2021/06/29 09:33:26;;;;;;;5.43;2.80;;;26.40;99.90;;;;;;4998953;28;20204;-76
2021/06/29 09:35:55;;;;;;;3.80;2.50;;;26.30;99.90;;;;;;4996909;28;20574;-76
2021/06/29 09:38:24;;;;;;;8.13;2.53;;;26.10;99.90;;;;;;4996560;28;20239;-76
2021/06/29 09:41:01;;;;;;;2.73;2.30;;;26.10;99.90;;;;;;5001727;28;20262;-76
2021/06/29 09:43:30;;;;;;;5.50;2.50;;;26.30;99.90;;;;;;4992780;28;20295;-76
2021/06/29 09:45:59;;;;;;;5.27;2.67;;;26.70;99.90;;;;;;4996023;28;20232;-76
2021/06/29 09:48:46;;;;;;;4.57;2.53;;;26.60;99.90;;;;;;4996907;28;20209;-77
2021/06/29 09:51:20;;;;;;;8.77;2.77;;;26.60;99.90;;;;;;4994004;28;20221;-77
2021/06/29 09:53:50;;;;;;;2.93;2.40;;;26.20;99.90;;;;;;5001262;28;20209;-77
2021/06/29 09:56:18;;;;;;;4.63;2.17;;;26.00;99.90;;;;;;5003229;28;20247;-77
2021/06/29 09:58:49;;;;;;;4.37;2.60;;;25.90;99.90;;;;;;5001706;28;20398;-78
2021/06/29 10:01:18;;;;;;;4.53;2.40;;;25.90;99.90;;;;;;5004724;28;20223;-75
2021/06/29 10:03:50;;;;;;;4.13;2.53;;;26.10;99.90;;;;;;5003745;28;20204;-75
2021/06/29 10:06:19;;;;;;;2.97;2.50;;;26.80;99.90;;;;;;5000436;28;20714;-75
2021/06/29 10:08:48;;;;;;;4.60;2.90;;;27.20;99.90;;;;;;5001538;28;20640;-77
2021/06/29 10:11:23;;;;;;;2.50;2.30;;;27.10;99.90;;;;;;4999850;28;20292;-75
2021/06/29 10:13:56;;;;;;;4.37;2.43;;;27.10;99.90;;;;;;5004767;28;20278;-76
2021/06/29 10:16:24;;;;;;;5.93;2.37;;;27.00;99.90;;;;;;5001433;28;20204;-76
2021/06/29 10:19:02;;;;;;;3.30;2.43;;;26.70;99.90;;;;;;4997805;28;20217;-76
2021/06/29 10:21:31;;;;;;;4.30;2.40;;;26.60;99.90;;;;;;5001254;28;20209;-76
2021/06/29 10:24:00;;;;;;;2.97;2.10;;;26.60;99.90;;;;;;4993260;28;20215;-75
2021/06/29 10:26:28;;;;;;;4.33;2.33;;;26.50;99.90;;;;;;4999298;28;20229;-76
2021/06/29 10:28:56;;;;;;;2.60;2.30;;;26.00;99.90;;;;;;4995073;28;20243;-76
2021/06/29 10:31:26;;;;;;;4.57;2.03;;;26.00;99.90;;;;;;4995161;28;20217;-76
2021/06/29 10:33:56;;;;;;;4.73;2.30;;;26.40;99.90;;;;;;4998872;28;20304;-76
2021/06/29 10:38:52;;;;;;;2.80;2.10;;;26.20;99.90;;;;;;4996920;28;20221;-73
2021/06/29 10:41:21;;;;;;;3.67;2.10;;;26.20;99.90;;;;;;4997972;28;20572;-73
2021/06/29 10:43:49;;;;;;;4.43;2.10;;;26.20;99.90;;;;;;4998808;28;20636;-73
2021/06/29 10:46:40;;;;;;;2.73;1.70;;;26.20;99.90;;;;;;4976192;28;20709;-75
2021/06/29 10:49:28;;;;;;;2.63;1.80;;;26.60;99.90;;;;;;4977157;28;20206;-74
2021/06/29 10:51:56;;;;;;;8.27;1.80;;;26.50;99.90;;;;;;4979464;28;20638;-74
2021/06/29 10:54:46;;;;;;;4.17;1.60;;;25.80;99.90;;;;;;4976454;28;20289;-74
2021/06/29 10:57:16;;;;;;;1.83;1.60;;;25.90;99.90;;;;;;4977347;28;20536;-74
2021/06/29 10:59:46;;;;;;;3.53;1.57;;;26.50;99.90;;;;;;4980099;28;20207;-73
2021/06/29 11:02:16;;;;;;;1.80;1.60;;;26.80;99.90;;;;;;4978357;28;20248;-73
2021/06/29 11:04:55;;;;;;;2.03;1.50;;;27.10;99.90;;;;;;4979888;28;20244;-73
2021/06/29 11:07:40;;;;;;;1.60;1.50;;;27.50;99.90;;;;;;4978331;28;20228;-74
2021/06/29 11:10:09;;;;;;;5.30;1.60;;;26.70;99.90;;;;;;4984654;28;20213;-73
2021/06/29 11:12:39;;;;;;;2.47;1.67;;;26.40;99.90;;;;;;4978450;28;20328;-73
2021/06/29 11:15:08;;;;;;;1.97;1.50;;;26.70;99.90;;;;;;4982693;28;20263;-74
2021/06/29 11:17:53;;;;;;;3.10;1.43;;;27.00;99.90;;;;;;4979099;28;20260;-74
2021/06/29 11:20:24;;;;;;;1.80;1.50;;;27.00;99.90;;;;;;4977402;28;20633;-73
2021/06/29 11:22:57;;;;;;;1.93;1.50;;;26.80;99.90;;;;;;4979323;28;20276;-73
2021/06/29 11:25:39;;;;;;;2.33;1.50;;;26.50;99.90;;;;;;4977385;28;20226;-73
2021/06/29 11:28:12;;;;;;;2.13;1.70;;;26.30;99.90;;;;;;4982164;28;20308;-74
2021/06/29 11:30:58;;;;;;;2.27;1.50;;;26.50;99.90;;;;;;4986027;28;20304;-74
2021/06/29 11:33:42;;;;;;;1.50;1.40;;;26.70;99.90;;;;;;4975281;28;20244;-74
2021/06/29 11:36:50;;;;;;;3.53;1.50;;;27.00;99.90;;;;;;4976176;28;20650;-74
2021/06/29 11:39:29;;;;;;;2.67;1.30;;;27.20;99.90;;;;;;4975899;28;20220;-74
2021/06/29 11:41:57;;;;;;;2.23;1.50;;;27.20;99.90;;;;;;4977476;28;20217;-74
2021/06/29 11:44:46;;;;;;;2.27;1.37;;;27.20;99.90;;;;;;4985262;28;20280;-75
2021/06/29 11:47:15;;;;;;;4.20;1.23;;;27.10;99.90;;;;;;4979579;28;20260;-73
2021/06/29 11:49:52;;;;;;;1.70;1.10;;;27.20;99.90;;;;;;4977368;28;20209;-74
2021/06/29 11:52:34;;;;;;;1.83;1.23;;;27.30;99.90;;;;;;4977120;28;20224;-74
2021/06/29 11:55:06;;;;;;;1.90;1.30;;;27.20;99.90;;;;;;4974570;28;20261;-74
2021/06/29 11:57:35;;;;;;;2.80;1.40;;;27.60;99.90;;;;;;4985450;28;20201;-74
2021/06/29 12:00:16;;;;;;;4.10;1.17;;;27.60;99.90;;;;;;4973797;28;20244;-74
2021/06/29 12:02:43;;;;;;;1.33;1.20;;;27.80;99.90;;;;;;4975943;28;20212;-74
2021/06/29 12:05:16;;;;;;;1.80;1.30;;;27.70;99.90;;;;;;4977837;28;20349;-73
2021/06/29 12:07:44;;;;;;;2.40;1.70;;;26.90;99.90;;;;;;4981687;28;20229;-74
2021/06/29 12:10:16;;;;;;;1.63;1.20;;;27.00;99.90;;;;;;4974573;28;20240;-75
2021/06/29 12:12:44;;;;;;;1.87;1.40;;;27.40;99.90;;;;;;4977835;28;20304;-74
2021/06/29 12:15:15;;;;;;;1.73;1.30;;;27.80;99.90;;;;;;4975366;28;20320;-74
2021/06/29 12:17:57;;;;;;;1.63;1.30;;;28.20;99.90;;;;;;4981463;28;20200;-74
2021/06/29 12:20:27;;;;;;;2.27;1.43;;;28.30;99.90;;;;;;4980559;28;20219;-74
2021/06/29 12:22:55;;;;;;;1.33;1.00;;;28.20;99.90;;;;;;4976804;28;20301;-74
2021/06/29 12:25:26;;;;;;;2.20;1.00;;;27.80;99.90;;;;;;4976907;28;20233;-74
2021/06/29 12:27:54;;;;;;;1.70;1.10;;;27.40;99.90;;;;;;4977101;28;20340;-74
2021/06/29 12:30:28;;;;;;;4.17;1.20;;;27.20;99.90;;;;;;4974910;28;20252;-74
2021/06/29 12:32:55;;;;;;;1.57;1.10;;;27.10;99.90;;;;;;4973785;28;20205;-74
2021/06/29 12:35:22;;;;;;;1.20;1.10;;;27.10;99.90;;;;;;4983528;28;20325;-74
2021/06/29 12:37:56;;;;;;;1.97;1.00;;;27.10;99.90;;;;;;4973384;28;20214;-74
2021/06/29 12:40:26;;;;;;;2.80;1.13;;;27.30;99.90;;;;;;4977308;28;20682;-74
2021/06/29 12:42:54;;;;;;;3.63;1.53;;;27.80;99.90;;;;;;4975328;28;20296;-74
2021/06/29 12:45:22;;;;;;;2.10;1.40;;;28.20;99.90;;;;;;4971764;28;20330;-74
2021/06/29 12:48:02;;;;;;;2.57;1.30;;;27.90;99.90;;;;;;4976133;28;20228;-74
2021/06/29 12:50:29;;;;;;;2.70;1.40;;;27.80;99.90;;;;;;4974935;28;20312;-73
2021/06/29 12:52:56;;;;;;;1.40;1.13;;;27.60;99.90;;;;;;4985099;28;20312;-74
2021/06/29 12:55:26;;;;;;;1.30;1.20;;;27.60;99.90;;;;;;4980786;28;20225;-74
2021/06/29 12:58:05;;;;;;;1.60;1.30;;;27.00;99.90;;;;;;4980069;28;20209;-74